All
Eskilstuna Airport (Eskilstuna) EKT Weather
There is no TAF data available at EKT. Showing TAF data for ESOW (17 mi N).
VST Terminal Area Forecast (no data for EKT)
| Date | Time (CEST) | Flight Rules | Wind Dir. | Speed | Type | Height AGL (ft) | Visibility | Remarks | ||||||
|---|---|---|---|---|---|---|---|---|---|---|---|---|---|---|
There is no METAR data available at EKT. Showing METAR data for ESOW (17 mi N).
Recent VST METAR history (no data for EKT)
| Date | Time (CEST) | Flight Rules | Wind Dir. | Speed | Type | Height AGL (ft) | Visibility | Temp (°C) | Temp (°F) | Dew Point (°C) | Dew Point (°F) | Rel. Humid. | Pressure | Density Altitude | Remarks |
|---|---|---|---|---|---|---|---|---|---|---|---|---|---|---|---|
| 02-Sep | 05:50 | VFR | 210° | 7 kt | 10000 meters | 14° | 57° | 12° | 53° | 88% | 1008 mb | 55 ft | |||
| 02-Sep | 05:20 | VFR | 210° | 6 kt | Few |
1,600 |
10000 meters | 14° | 57° | 13° | 55° | 94% | 1008 mb | 55 ft | |
| 02-Sep | 04:50 | VFR | 210° | 7 kt | 10000 meters | 14° | 57° | 12° | 53° | 88% | 1008 mb | 55 ft | |||
| 02-Sep | 04:20 | VFR | 210° | 6 kt | 10000 meters | 14° | 57° | 13° | 55° | 94% | 1008 mb | 55 ft | |||
| 02-Sep | 03:50 | VFR | 220° | 6 kt | 10000 meters | 14° | 57° | 13° | 55° | 94% | 1008 mb | 55 ft | |||
| 02-Sep | 03:20 | VFR | 220° | 4 kt | 10000 meters | 14° | 57° | 12° | 53° | 88% | 1008 mb | 55 ft | |||
| 02-Sep | 02:50 | VFR | 220° | 7 kt | 10000 meters | 15° | 59° | 12° | 53° | 82% | 1008 mb | 175 ft | |||
| 02-Sep | 02:20 | VFR | 230° | 4 kt | 10000 meters | 15° | 59° | 12° | 53° | 82% | 1008 mb | 175 ft | |||
| 02-Sep | 01:50 | VFR | 240° | 5 kt | 10000 meters | 15° | 59° | 12° | 53° | 82% | 1008 mb | 175 ft | |||
| 02-Sep | 01:20 | VFR | 220° | 5 kt | 10000 meters | 15° | 59° | 12° | 53° | 82% | 1008 mb | 175 ft | |||
| 02-Sep | 00:50 | VFR | 210° | 5 kt | 10000 meters |
10° | 50° | 10° | 50° | 100% | 1009 mb | -455 ft | |||
| 02-Sep | 00:20 | VFR | Calm | Clouds and visibility are OK. | >= 10 km | 10° | 50° | 9° | 48° | 93% | 1009 mb | -455 ft | |||
| 01-Sep | 23:50 | VFR | Calm | Clouds and visibility are OK. | >= 10 km | 10° | 50° | 10° | 50° | 100% | 1008 mb | -425 ft | |||
| 01-Sep | 23:20 | VFR | Calm | Clouds and visibility are OK. | >= 10 km |
10° | 50° | 9° | 48° | 93% | 1008 mb | -425 ft | |||
| 01-Sep | 22:50 | VFR | Variable | 1 kt | 10000 meters | 11° | 51° | 10° | 50° | 94% | 1008 mb | -305 ft | |||
| 01-Sep | 22:20 | VFR | Calm | 10000 meters | 12° | 53° | 10° | 50° | 88% | 1008 mb | -185 ft | ||||
| 01-Sep | 21:50 | VFR | Variable | 2 kt | 10000 meters | 13° | 55° | 11° | 51° | 88% | 1008 mb | -65 ft | |||
| 01-Sep | 21:20 | VFR | 30° | 1 kt | 10000 meters | 13° | 55° | 10° | 50° | 82% | 1008 mb | -65 ft | |||
| 01-Sep | 20:50 | VFR | Calm | 10000 meters | 14° | 57° | 10° | 50° | 77% | 1008 mb | 55 ft | ||||
| 01-Sep | 20:20 | VFR | 140° | 2 kt | 10000 meters | 15° | 59° | 10° | 50° | 72% | 1008 mb | 175 ft | |||
| 01-Sep | 19:50 | VFR | 140° | 3 kt | 10000 meters | 17° | 62° | 10° | 50° | 63% | 1008 mb | 415 ft | |||
| 01-Sep | 19:20 | VFR | Calm | 10000 meters | 18° | 64° | 9° | 48° | 56% | 1008 mb | 535 ft | ||||
| 01-Sep | 18:50 | VFR | 20° | 3 kt | 10000 meters | 21° | 69° | 9° | 48° | 46% | 1008 mb | 895 ft | |||
| 01-Sep | 18:20 | VFR | 360° | 3 kt | 10000 meters | 21° | 69° | 9° | 48° | 46% | 1008 mb | 895 ft |
Login
| Your browser is unsupported. upgrade your browser |
